Time;durP1;ratioP1;P1;durP2;ratioP2;P2;SDS_P1;SDS_P2;PMS_P1;PMS_P2;Temp;Humidity;BMP_temperature;BMP_pressure;BME280_temperature;BME280_humidity;BME280_pressure;Samples;Min_cycle;Max_cycle;Signal;HPM_P1;HPM_P2
2021/09/16 00:02:30;;;;;;;7.10;6.28;;;;;;;12.76;82.13;93454.44;5029324;28;20049;-84
2021/09/16 00:04:57;;;;;;;7.93;6.88;;;;;;;12.60;82.03;93440.34;5029417;28;20076;-84
2021/09/16 00:07:24;;;;;;;9.15;6.68;;;;;;;12.67;83.14;93453.16;5028950;28;20409;-84
2021/09/16 00:09:51;;;;;;;7.80;6.47;;;;;;;12.64;83.16;93462.09;5021240;28;20057;-84
2021/09/16 00:12:18;;;;;;;8.65;6.85;;;;;;;12.61;83.73;93461.75;5029237;28;20053;-84
2021/09/16 00:14:45;;;;;;;8.10;7.10;;;;;;;12.49;84.67;93453.97;5029046;28;20048;-85
2021/09/16 00:17:13;;;;;;;7.75;6.95;;;;;;;12.62;84.33;93481.34;5028993;28;20046;-84
2021/09/16 00:19:40;;;;;;;8.27;6.97;;;;;;;12.52;84.46;93463.81;5029231;28;20498;-84
2021/09/16 00:22:07;;;;;;;8.93;8.02;;;;;;;12.53;85.60;93478.28;5029116;28;20069;-84
2021/09/16 00:24:34;;;;;;;8.48;7.60;;;;;;;12.06;86.28;93415.16;5029272;28;20565;-84
2021/09/16 00:27:01;;;;;;;9.13;6.97;;;;;;;12.47;84.23;93471.41;5029095;28;20072;-84
2021/09/16 00:29:27;;;;;;;7.97;7.18;;;;;;;12.62;84.81;93489.06;5028828;28;20049;-84
2021/09/16 00:31:54;;;;;;;9.77;8.00;;;;;;;12.46;85.05;93467.25;5028758;28;20107;-84
2021/09/16 00:34:22;;;;;;;8.23;7.32;;;;;;;12.51;84.67;93486.22;5028805;28;20045;-84
2021/09/16 00:36:49;;;;;;;7.82;7.03;;;;;;;11.73;84.39;93357.84;5029050;28;20075;-85
2021/09/16 00:39:16;;;;;;;8.93;7.38;;;;;;;12.46;83.51;93456.94;5028933;28;20050;-83
2021/09/16 00:41:43;;;;;;;7.45;6.57;;;;;;;12.69;83.24;93487.25;5028590;28;20577;-84
2021/09/16 00:44:10;;;;;;;7.80;6.57;;;;;;;12.58;82.38;93460.38;5017819;28;20046;-84
2021/09/16 00:46:37;;;;;;;8.38;6.15;;;;;;;12.45;81.87;93445.09;5031608;28;20077;-84
2021/09/16 00:49:05;;;;;;;7.75;6.95;;;;;;;12.64;82.72;93481.94;5033693;28;20064;-84
2021/09/16 00:51:34;;;;;;;8.70;6.32;;;;;;;12.56;82.86;93485.59;5041118;28;20059;-84
2021/09/16 00:54:03;;;;;;;8.23;6.20;;;;;;;12.43;82.21;93463.31;5033815;28;20038;-83
2021/09/16 00:56:31;;;;;;;8.23;6.13;;;;;;;12.50;82.14;93484.63;5036762;28;20049;-84
2021/09/16 00:59:01;;;;;;;6.30;5.45;;;;;;;12.35;81.84;93466.19;5041296;28;20053;-84
2021/09/16 01:01:27;;;;;;;7.88;6.30;;;;;;;12.48;81.55;93483.28;5036511;28;20053;-84
2021/09/16 01:03:56;;;;;;;7.63;5.93;;;;;;;12.39;82.58;93478.41;5032652;28;20056;-85
2021/09/16 01:06:23;;;;;;;6.68;5.95;;;;;;;11.81;83.14;93404.88;5020466;28;20132;-84
2021/09/16 01:08:52;;;;;;;8.10;6.20;;;;;;;11.41;83.20;93352.75;5025874;28;20041;-83
2021/09/16 01:11:30;;;;;;;7.55;6.40;;;;;;;11.71;83.01;93389.91;5020361;28;20141;-83
2021/09/16 01:13:57;;;;;;;6.25;5.50;;;;;;;12.01;83.25;93440.72;5022916;28;20069;-83
2021/09/16 01:16:24;;;;;;;7.55;6.05;;;;;;;11.95;83.24;93433.84;5031983;28;20099;-84
2021/09/16 01:18:51;;;;;;;7.80;6.82;;;;;;;11.83;82.62;93408.81;5032218;28;20056;-84
2021/09/16 01:21:21;;;;;;;7.32;6.20;;;;;;;12.22;82.92;93472.25;5032135;28;20516;-84
2021/09/16 01:23:49;;;;;;;6.22;5.60;;;;;;;12.15;83.12;93456.88;5031958;28;20088;-85
2021/09/16 01:26:16;;;;;;;6.70;6.00;;;;;;;12.16;84.55;93463.59;5031685;28;20050;-85
2021/09/16 01:28:43;;;;;;;6.20;5.60;;;;;;;12.05;85.08;93466.84;5031774;28;20414;-85
2021/09/16 01:31:10;;;;;;;6.90;6.20;;;;;;;12.02;85.31;93468.03;5031932;28;20057;-85
2021/09/16 01:33:37;;;;;;;7.07;5.88;;;;;;;11.55;85.72;93398.94;5032000;28;20049;-84
2021/09/16 01:36:09;;;;;;;6.85;5.88;;;;;;;12.00;85.09;93470.81;5032010;28;20065;-85
2021/09/16 01:38:36;;;;;;;7.25;6.55;;;;;;;12.00;85.57;93470.03;5031603;28;20056;-84
2021/09/16 01:41:04;;;;;;;7.35;5.90;;;;;;;11.95;85.59;93469.88;5031486;28;20060;-84
2021/09/16 01:43:31;;;;;;;7.75;6.30;;;;;;;11.73;85.17;93435.03;5031681;28;20053;-84
2021/09/16 01:45:58;;;;;;;8.27;6.47;;;;;;;11.84;86.03;93451.56;5031470;28;20046;-84
2021/09/16 01:48:26;;;;;;;9.20;6.78;;;;;;;11.56;86.82;93421.91;5031220;28;20140;-85
2021/09/16 01:50:53;;;;;;;8.00;6.85;;;;;;;11.93;85.79;93475.25;5031299;28;20502;-85
2021/09/16 01:53:19;;;;;;;7.85;7.05;;;;;;;11.43;86.33;93409.16;5031439;28;20053;-85
2021/09/16 01:55:46;;;;;;;7.97;7.03;;;;;;;11.83;86.82;93474.94;5031434;28;20050;-85
2021/09/16 01:58:15;;;;;;;8.68;7.07;;;;;;;11.81;86.66;93476.94;5031467;28;20103;-87
2021/09/16 02:00:41;;;;;;;7.63;6.40;;;;;;;11.86;86.28;93477.88;5031623;28;20053;-86
2021/09/16 02:03:08;;;;;;;7.97;6.88;;;;;;;11.19;86.79;93388.31;5032123;28;20049;-86
2021/09/16 02:05:35;;;;;;;8.50;6.50;;;;;;;11.79;87.36;93473.78;5031685;28;20498;-84
2021/09/16 02:08:02;;;;;;;8.52;6.82;;;;;;;11.75;86.53;93465.69;5031023;28;20053;-84
2021/09/16 02:10:29;;;;;;;7.82;6.80;;;;;;;11.80;85.80;93471.00;5031063;28;20061;-84
2021/09/16 02:12:55;;;;;;;8.23;6.97;;;;;;;11.70;86.66;93458.59;5030952;28;20050;-85
2021/09/16 02:15:24;;;;;;;8.25;7.18;;;;;;;11.68;87.80;93452.88;5030995;28;20046;-84
2021/09/16 02:17:51;;;;;;;8.27;6.90;;;;;;;11.79;86.87;93472.00;5031308;28;20089;-84
2021/09/16 02:20:18;;;;;;;7.60;6.80;;;;;;;11.46;87.68;93429.28;5030838;28;20053;-84
2021/09/16 02:22:44;;;;;;;7.63;6.50;;;;;;;11.46;87.57;93434.44;5030508;28;20057;-84
2021/09/16 02:25:12;;;;;;;8.75;7.82;;;;;;;11.69;87.07;93464.75;5030994;28;20042;-84
2021/09/16 02:27:39;;;;;;;8.38;7.10;;;;;;;11.67;88.12;93465.97;5031071;28;20410;-83
2021/09/16 02:30:07;;;;;;;8.85;7.18;;;;;;;11.61;88.05;93462.41;5030515;28;20046;-83
2021/09/16 02:32:36;;;;;;;9.18;7.10;;;;;;;11.32;87.88;93419.09;5030880;28;20057;-84
2021/09/16 02:35:03;;;;;;;9.32;7.65;;;;;;;11.61;88.09;93462.41;5030645;28;20993;-84
2021/09/16 02:37:30;;;;;;;7.95;6.80;;;;;;;11.62;87.66;93461.44;5030364;28;20517;-83
2021/09/16 02:39:57;;;;;;;9.10;6.88;;;;;;;11.34;87.68;93432.53;5030531;28;20060;-83
2021/09/16 02:42:24;;;;;;;9.02;6.95;;;;;;;11.59;87.29;93469.56;5030310;28;20052;-83
2021/09/16 02:44:51;;;;;;;8.73;6.95;;;;;;;11.50;87.62;93467.25;5030672;28;20053;-83
2021/09/16 02:47:17;;;;;;;7.72;6.78;;;;;;;11.55;87.51;93466.63;5030565;28;20045;-83
2021/09/16 02:49:46;;;;;;;9.43;7.13;;;;;;;11.29;87.58;93431.59;5029856;28;20486;-83
2021/09/16 02:52:12;;;;;;;9.75;7.70;;;;;;;11.34;88.04;93454.91;5030911;28;20045;-83
2021/09/16 02:54:39;;;;;;;9.48;7.50;;;;;;;11.30;87.68;93440.88;5030835;28;20049;-83
2021/09/16 02:57:06;;;;;;;8.48;6.72;;;;;;;11.41;87.79;93463.38;5030305;28;20528;-83
2021/09/16 02:59:33;;;;;;;8.82;7.32;;;;;;;11.19;87.61;93429.47;5030130;28;20048;-83
2021/09/16 03:02:00;;;;;;;8.75;7.47;;;;;;;11.26;87.84;93445.66;5030013;28;20518;-84
2021/09/16 03:04:27;;;;;;;8.50;7.50;;;;;;;11.27;88.74;93459.28;5030239;28;20128;-83
2021/09/16 03:06:55;;;;;;;7.32;6.55;;;;;;;11.03;87.88;93417.91;5030376;28;20057;-83
2021/09/16 03:09:23;;;;;;;8.27;6.90;;;;;;;11.13;86.84;93438.81;5030659;28;20064;-89
2021/09/16 03:11:50;;;;;;;7.22;6.53;;;;;;;11.28;86.90;93469.38;5030022;28;20068;-89
2021/09/16 03:14:17;;;;;;;8.48;6.82;;;;;;;11.19;87.81;93461.13;5029664;28;20143;-85
2021/09/16 03:16:44;;;;;;;7.63;6.70;;;;;;;11.11;88.14;93456.22;5029933;28;20049;-85
2021/09/16 03:19:10;;;;;;;8.60;7.65;;;;;;;11.02;87.99;93442.81;5029867;28;20061;-86
2021/09/16 03:21:38;;;;;;;8.80;6.97;;;;;;;10.98;88.01;93439.09;5029664;28;20045;-84
2021/09/16 03:24:07;;;;;;;9.55;7.20;;;;;;;10.61;88.21;93395.19;5029811;28;20045;-84
2021/09/16 03:26:34;;;;;;;10.75;7.13;;;;;;;10.82;89.67;93430.88;5029683;28;20055;-85
2021/09/16 03:29:01;;;;;;;10.88;7.03;;;;;;;10.53;90.13;93394.44;5029853;28;20056;-85
2021/09/16 03:31:28;;;;;;;9.25;8.10;;;;;;;10.80;90.23;93437.19;5029400;28;20052;-85
2021/09/16 03:33:55;;;;;;;8.85;7.07;;;;;;;10.80;90.48;93443.13;5026345;28;20402;-85
2021/09/16 03:36:21;;;;;;;8.07;7.10;;;;;;;10.38;90.46;93386.94;5028230;28;20049;-85
2021/09/16 03:38:48;;;;;;;9.63;7.72;;;;;;;10.89;91.29;93460.88;5029200;28;20046;-86
2021/09/16 03:41:17;;;;;;;10.73;8.15;;;;;;;10.92;90.65;93471.53;5029715;28;20045;-85
2021/09/16 03:43:43;;;;;;;10.38;7.68;;;;;;;10.78;90.81;93446.91;5028925;28;20056;-85
2021/09/16 03:46:11;;;;;;;9.63;8.23;;;;;;;10.86;90.44;93469.78;5029158;28;20498;-85
2021/09/16 03:48:38;;;;;;;11.75;8.15;;;;;;;10.40;90.39;93404.72;5029045;28;20494;-85
2021/09/16 03:51:04;;;;;;;10.90;8.40;;;;;;;10.59;91.64;93430.59;5029052;28;20041;-85
2021/09/16 03:53:31;;;;;;;13.70;8.90;;;;;;;10.49;91.23;93415.59;5029522;28;20053;-84
2021/09/16 03:55:59;;;;;;;9.93;7.57;;;;;;;10.83;91.04;93470.19;5029472;28;20045;-84
2021/09/16 03:58:27;;;;;;;10.52;8.50;;;;;;;10.85;90.39;93473.34;5028844;28;20052;-84
2021/09/16 04:00:54;;;;;;;9.80;8.30;;;;;;;10.52;91.00;93428.81;5029146;28;20041;-84
2021/09/16 04:03:21;;;;;;;11.27;8.65;;;;;;;10.82;91.11;93460.91;5029037;28;20048;-84
2021/09/16 04:05:48;;;;;;;14.90;9.75;;;;;;;10.77;90.29;93458.97;5029053;28;20048;-84
2021/09/16 04:08:15;;;;;;;10.48;8.30;;;;;;;10.86;89.91;93464.66;5028831;28;20537;-84
2021/09/16 04:10:41;;;;;;;11.60;9.30;;;;;;;10.72;89.90;93445.94;5029056;28;20628;-84
2021/09/16 04:13:08;;;;;;;10.57;8.77;;;;;;;10.58;89.42;93426.41;5028913;28;20061;-84
2021/09/16 04:15:37;;;;;;;12.00;9.00;;;;;;;10.81;90.15;93472.97;5030523;28;20053;-84
2021/09/16 04:18:04;;;;;;;12.07;8.82;;;;;;;10.75;90.29;93473.00;5029794;28;20149;-83
2021/09/16 04:20:31;;;;;;;11.60;9.55;;;;;;;10.48;90.30;93437.13;5030097;28;20395;-83
2021/09/16 04:22:57;;;;;;;12.63;9.35;;;;;;;10.70;90.93;93473.63;5030204;28;20046;-84
2021/09/16 04:25:25;;;;;;;11.10;8.93;;;;;;;10.67;90.39;93479.94;5032821;28;20042;-84
2021/09/16 04:27:52;;;;;;;17.52;10.73;;;;;;;10.58;89.98;93452.09;5033242;28;20045;-84
2021/09/16 04:30:18;;;;;;;18.52;12.02;;;;;;;10.75;90.63;93475.56;5033025;28;20053;-84
2021/09/16 04:32:47;;;;;;;12.70;9.02;;;;;;;10.51;90.87;93447.00;5032637;28;20045;-83
2021/09/16 04:35:13;;;;;;;11.85;8.85;;;;;;;10.68;91.44;93486.66;5032768;28;20054;-84
2021/09/16 04:37:40;;;;;;;13.32;9.32;;;;;;;10.71;90.55;93482.91;5032679;28;20049;-84
2021/09/16 04:40:08;;;;;;;13.85;9.27;;;;;;;10.64;91.41;93464.94;5032662;28;20502;-84
2021/09/16 04:42:35;;;;;;;14.18;9.65;;;;;;;10.73;91.40;93486.03;5032733;28;20049;-83
2021/09/16 04:45:02;;;;;;;14.55;10.02;;;;;;;10.66;91.02;93472.44;5032681;28;20046;-84
2021/09/16 04:47:29;;;;;;;15.13;10.20;;;;;;;10.80;91.50;93489.38;5032500;28;20045;-84
2021/09/16 04:49:57;;;;;;;12.18;9.05;;;;;;;10.83;91.29;93488.16;5032812;28;20057;-84
2021/09/16 04:52:25;;;;;;;12.85;9.90;;;;;;;10.82;91.58;93492.53;5032564;28;20045;-84
2021/09/16 04:54:52;;;;;;;19.38;11.15;;;;;;;10.85;91.10;93491.34;5032642;28;20475;-84
2021/09/16 04:57:18;;;;;;;14.20;8.95;;;;;;;10.88;91.59;93496.06;5032918;28;20793;-84
2021/09/16 04:59:45;;;;;;;13.45;9.57;;;;;;;10.76;91.62;93475.38;5032787;28;20057;-84
2021/09/16 05:02:12;;;;;;;12.20;9.10;;;;;;;10.63;91.95;93455.66;5032925;28;20061;-84
2021/09/16 05:04:39;;;;;;;14.57;10.23;;;;;;;10.83;92.08;93486.41;5032958;28;20060;-84
2021/09/16 05:07:07;;;;;;;14.35;11.63;;;;;;;10.37;92.42;93421.31;5032513;28;20056;-84
2021/09/16 05:09:34;;;;;;;13.13;10.40;;;;;;;11.06;91.97;93508.25;5033053;28;20116;-84
2021/09/16 05:12:01;;;;;;;15.13;11.25;;;;;;;11.15;92.11;93501.09;5032413;28;20049;-84
2021/09/16 05:14:27;;;;;;;14.10;10.95;;;;;;;11.07;92.48;93489.25;5032107;28;20064;-84
2021/09/16 05:16:54;;;;;;;14.40;11.70;;;;;;;11.06;93.34;93492.06;4337474;28;20001990;-84
2021/09/16 05:19:21;;;;;;;15.18;12.40;;;;;;;11.30;91.65;93498.22;5032281;28;20467;-84
2021/09/16 05:21:48;;;;;;;24.65;17.95;;;;;;;11.34;92.86;93506.34;5032185;28;20045;-84
2021/09/16 05:24:17;;;;;;;25.10;18.80;;;;;;;11.45;91.86;93507.47;5031912;28;20498;-84
2021/09/16 05:26:44;;;;;;;24.25;19.98;;;;;;;11.05;93.33;93446.75;5031705;28;20143;-84
2021/09/16 05:29:11;;;;;;;22.80;19.13;;;;;;;11.27;94.22;93477.28;5032002;28;20053;-84
2021/09/16 05:31:38;;;;;;;24.98;20.88;;;;;;;11.54;95.17;93513.94;5031665;28;20041;-85
2021/09/16 05:34:05;;;;;;;23.55;18.98;;;;;;;11.58;92.03;93520.22;5031483;28;20060;-85
2021/09/16 05:36:33;;;;;;;25.85;19.90;;;;;;;11.69;94.17;93512.84;5031815;28;20057;-85
2021/09/16 05:38:59;;;;;;;21.63;17.08;;;;;;;11.56;91.25;93469.97;5032599;28;20593;-85
2021/09/16 05:41:29;;;;;;;20.85;17.70;;;;;;;11.97;92.13;93507.28;5032357;28;20049;-85
2021/09/16 05:43:56;;;;;;;22.38;17.67;;;;;;;11.81;96.26;93513.75;5032159;28;20049;-85
2021/09/16 05:46:23;;;;;;;24.48;17.63;;;;;;;11.82;96.12;93501.66;5031633;28;20061;-85
2021/09/16 05:48:50;;;;;;;21.50;16.65;;;;;;;12.10;92.01;93518.50;5031503;28;20045;-84
2021/09/16 05:51:17;;;;;;;20.75;17.20;;;;;;;11.95;93.40;93485.34;5031782;28;20657;-84
2021/09/16 05:53:43;;;;;;;24.55;18.88;;;;;;;12.25;93.97;93518.97;5031134;28;20057;-84
2021/09/16 05:56:10;;;;;;;26.13;20.80;;;;;;;12.40;94.15;93518.63;5031611;28;20054;-84
2021/09/16 05:58:39;;;;;;;26.17;19.88;;;;;;;11.97;91.06;93435.22;5031859;28;20050;-84
2021/09/16 06:01:06;;;;;;;24.40;18.30;;;;;;;12.80;91.29;93514.06;5031251;28;20055;-85
2021/09/16 06:03:33;;;;;;;22.67;18.10;;;;;;;12.81;92.35;93508.72;5031102;28;20433;-84
2021/09/16 06:06:00;;;;;;;23.55;17.48;;;;;;;12.48;92.19;93462.66;5031136;28;20069;-85
2021/09/16 06:08:26;;;;;;;29.42;19.23;;;;;;;12.98;92.60;93512.47;5031171;28;20410;-85
2021/09/16 06:10:53;;;;;;;23.95;16.85;;;;;;;13.00;91.61;93507.91;5030973;28;20053;-84
2021/09/16 06:13:20;;;;;;;27.00;17.02;;;;;;;13.31;90.48;93519.81;5031189;28;20060;-84
2021/09/16 06:15:48;;;;;;;21.70;15.48;;;;;;;13.48;89.38;93514.06;5030804;28;20490;-84
2021/09/16 06:18:15;;;;;;;21.48;15.93;;;;;;;13.36;88.77;93483.81;5031124;28;20065;-84
2021/09/16 06:20:42;;;;;;;27.27;15.15;;;;;;;13.57;87.10;93471.44;5030727;28;20054;-85
2021/09/16 06:23:09;;;;;;;22.38;15.18;;;;;;;14.18;86.09;93511.03;5030964;28;20058;-84
2021/09/16 06:25:36;;;;;;;25.63;16.63;;;;;;;14.33;83.99;93490.72;5030687;28;20514;-85
2021/09/16 06:28:03;;;;;;;21.70;15.52;;;;;;;14.86;83.00;93495.16;5030553;28;20045;-85
2021/09/16 06:30:30;;;;;;;24.92;15.90;;;;;;;14.73;81.69;93454.78;5031094;28;20048;-85
2021/09/16 06:32:58;;;;;;;25.13;14.38;;;;;;;15.25;79.40;93500.53;5027883;28;20411;-85
2021/09/16 06:35:25;;;;;;;23.42;13.95;;;;;;;15.45;77.43;93512.25;5016026;28;20050;-85
2021/09/16 06:37:52;;;;;;;22.05;13.65;;;;;;;15.62;77.84;93494.19;5009654;28;20061;-84
2021/09/16 06:40:19;;;;;;;19.23;13.25;;;;;;;16.02;76.78;93510.66;5010975;28;20050;-84
2021/09/16 06:42:46;;;;;;;21.27;13.07;;;;;;;16.22;75.45;93504.97;5010571;28;20054;-84
2021/09/16 06:45:13;;;;;;;21.05;13.57;;;;;;;16.39;74.63;93496.41;5010569;28;20048;-84
2021/09/16 06:47:40;;;;;;;20.48;12.45;;;;;;;16.51;73.29;93481.53;5010354;28;20050;-84
2021/09/16 06:50:10;;;;;;;22.75;12.45;;;;;;;16.77;73.73;93487.03;5011548;28;20037;-85
2021/09/16 06:52:37;;;;;;;20.63;12.15;;;;;;;16.42;73.38;93434.47;5010684;28;20048;-85
2021/09/16 06:55:05;;;;;;;19.30;12.13;;;;;;;17.02;74.14;93482.34;5010197;28;20054;-84
2021/09/16 06:57:32;;;;;;;18.75;11.73;;;;;;;17.22;73.29;93466.28;5010353;28;20049;-84
2021/09/16 06:59:59;;;;;;;20.05;11.98;;;;;;;17.43;72.67;93479.44;5010676;28;20050;-85
2021/09/16 07:02:26;;;;;;;17.92;11.57;;;;;;;17.61;72.12;93471.31;5010361;28;20050;-85
2021/09/16 07:04:53;;;;;;;17.17;10.52;;;;;;;17.67;70.90;93453.94;5010069;28;20141;-86
2021/09/16 07:07:21;;;;;;;18.02;10.27;;;;;;;18.06;69.94;93465.13;5010678;28;20045;-84
2021/09/16 07:09:48;;;;;;;16.67;10.52;;;;;;;18.40;68.52;93478.63;5010239;28;20050;-86
2021/09/16 07:12:15;;;;;;;19.13;10.20;;;;;;;18.06;68.45;93447.75;5010528;28;20060;-85
2021/09/16 07:14:42;;;;;;;24.35;13.15;;;;;;;18.46;68.67;93496.88;5010267;28;20085;-86
2021/09/16 07:17:08;;;;;;;21.73;12.32;;;;;;;18.55;67.55;93472.72;5010283;28;20077;-85
2021/09/16 07:19:35;;;;;;;24.35;12.50;;;;;;;18.65;66.34;93492.03;5009813;28;20514;-86
2021/09/16 07:22:02;;;;;;;21.55;12.13;;;;;;;18.50;64.87;93412.09;5010038;28;20049;-86
2021/09/16 07:24:30;;;;;;;22.77;11.93;;;;;;;18.93;64.20;93420.56;5010005;28;20046;-88
2021/09/16 07:26:57;;;;;;;21.40;11.45;;;;;;;18.86;62.98;93398.41;5010092;28;20418;-88
2021/09/16 07:29:25;;;;;;;21.60;10.55;;;;;;;19.08;62.40;93399.00;5015019;28;20046;-87
2021/09/16 07:31:54;;;;;;;16.65;10.00;;;;;;;19.71;61.76;93462.38;5029000;28;20060;-82
2021/09/16 07:34:21;;;;;;;13.70;8.00;;;;;;;20.09;60.61;93495.25;5031290;28;20052;-84
2021/09/16 07:36:49;;;;;;;18.80;7.93;;;;;;;19.94;61.10;93441.25;5038156;28;20049;-85
2021/09/16 07:39:18;;;;;;;15.88;8.52;;;;;;;20.42;60.33;93454.75;5031035;28;20059;-86
2021/09/16 07:41:48;;;;;;;16.08;8.48;;;;;;;20.67;58.39;93444.50;5029223;28;20055;-85
2021/09/16 07:44:15;;;;;;;13.80;7.88;;;;;;;20.97;57.07;93450.69;5029546;28;20045;-85
2021/09/16 07:46:42;;;;;;;12.70;7.15;;;;;;;21.40;56.02;93483.34;5028975;28;20050;-85
2021/09/16 07:49:09;;;;;;;10.85;6.93;;;;;;;21.54;55.22;93486.94;5029394;28;20053;-84
2021/09/16 07:51:36;;;;;;;19.08;7.68;;;;;;;21.81;54.39;93490.97;5029265;28;20053;-84
2021/09/16 07:54:03;;;;;;;15.70;7.32;;;;;;;22.13;54.41;93491.50;5029063;28;20494;-84
2021/09/16 07:56:30;;;;;;;15.23;7.45;;;;;;;22.14;53.79;93487.81;5029207;28;20052;-85
2021/09/16 07:58:58;;;;;;;15.35;5.97;;;;;;;21.83;52.24;93483.63;5029082;28;20053;-84
2021/09/16 08:01:25;;;;;;;16.02;7.55;;;;;;;21.86;52.75;93485.69;5028928;28;20051;-86
2021/09/16 08:03:52;;;;;;;13.45;6.88;;;;;;;22.29;52.32;93485.06;5028964;28;20045;-84
2021/09/16 08:06:19;;;;;;;12.77;7.10;;;;;;;22.43;51.13;93455.63;5028887;28;20060;-85
2021/09/16 08:08:46;;;;;;;17.98;9.27;;;;;;;22.69;51.06;93452.75;5029056;28;20072;-84
2021/09/16 08:11:13;;;;;;;11.43;6.63;;;;;;;23.00;49.07;93439.28;5029251;28;20050;-85
2021/09/16 08:13:40;;;;;;;19.48;7.32;;;;;;;23.26;47.02;93422.44;5029133;28;20053;-86
2021/09/16 08:16:08;;;;;;;14.77;6.88;;;;;;;23.58;47.93;93411.25;5028795;28;20059;-85
2021/09/16 08:18:35;;;;;;;10.25;6.60;;;;;;;23.74;47.46;93382.94;5024427;28;20060;-85
2021/09/16 08:21:03;;;;;;;13.30;6.65;;;;;;;24.50;46.58;93445.94;5027007;28;20045;-85
2021/09/16 08:23:30;;;;;;;13.18;6.88;;;;;;;24.62;44.46;93466.47;5029013;28;20057;-86
2021/09/16 08:25:58;;;;;;;14.68;7.82;;;;;;;23.99;45.15;93464.09;5028728;28;20422;-85
2021/09/16 08:28:24;;;;;;;16.15;7.93;;;;;;;24.12;45.40;93463.38;5028909;28;20060;-86
2021/09/16 08:30:53;;;;;;;16.40;8.20;;;;;;;24.36;45.10;93467.72;5028917;28;20445;-84
2021/09/16 08:33:21;;;;;;;14.60;7.85;;;;;;;24.83;44.48;93451.13;5028638;28;20134;-85
2021/09/16 08:35:49;;;;;;;14.82;7.25;;;;;;;24.72;41.20;93447.09;5028632;28;20506;-86
2021/09/16 08:38:16;;;;;;;14.68;6.72;;;;;;;25.04;41.40;93454.09;5028967;28;20049;-85
2021/09/16 08:40:43;;;;;;;11.20;5.75;;;;;;;25.24;39.21;93425.03;5028605;28;20064;-86
2021/09/16 08:43:10;;;;;;;12.82;6.22;;;;;;;25.71;40.98;93449.25;5028315;28;20442;-86
2021/09/16 08:45:37;;;;;;;10.25;5.95;;;;;;;25.52;36.50;93401.28;5028656;28;20049;-86
2021/09/16 08:48:04;;;;;;;10.07;4.85;;;;;;;25.91;38.11;93391.19;5028695;28;20057;-86
2021/09/16 08:50:33;;;;;;;10.63;5.50;;;;;;;26.33;36.75;93425.16;5028579;28;20502;-86
2021/09/16 08:53:00;;;;;;;8.85;4.38;;;;;;;26.18;36.93;93365.72;5028368;28;20048;-85
2021/09/16 08:55:28;;;;;;;9.65;4.85;;;;;;;26.61;36.37;93380.16;5028246;28;20577;-87
2021/09/16 08:57:58;;;;;;;11.65;5.38;;;;;;;27.31;37.02;93425.06;5028772;28;20042;-85
2021/09/16 09:00:25;;;;;;;6.40;3.58;;;;;;;27.68;34.95;93432.69;5028207;28;20056;-86
2021/09/16 09:02:54;;;;;;;6.38;4.20;;;;;;;27.83;33.39;93430.66;5028575;28;20049;-85
2021/09/16 09:05:22;;;;;;;7.57;3.88;;;;;;;28.04;32.95;93433.38;5028453;28;20136;-84
2021/09/16 09:07:51;;;;;;;7.18;4.00;;;;;;;28.25;33.72;93433.53;5028549;28;20414;-84
2021/09/16 09:10:43;;;;;;;9.57;4.32;;;;;;;28.33;34.27;93413.44;5029779;28;20053;-84
2021/09/16 09:13:13;;;;;;;8.88;5.05;;;;;;;28.26;31.45;93384.09;5031940;28;20502;-87
2021/09/16 09:15:42;;;;;;;8.07;4.65;;;;;;;28.40;30.74;93410.31;5032288;28;20061;-88
2021/09/16 09:18:11;;;;;;;15.07;6.15;;;;;;;28.64;32.55;93387.81;5032069;28;20506;-84
2021/09/16 09:21:02;;;;;;;11.93;5.22;;;;;;;29.06;30.90;93432.84;5032642;28;20481;-85
2021/09/16 09:23:32;;;;;;;12.80;5.07;;;;;;;28.87;31.20;93427.22;5032221;28;20050;-86
2021/09/16 09:26:00;;;;;;;8.85;5.63;;;;;;;27.68;33.76;93430.03;5031881;28;20056;-84
2021/09/16 09:28:33;;;;;;;8.50;4.47;;;;;;;27.60;33.19;93378.81;5032110;28;20056;-86
2021/09/16 09:31:02;;;;;;;8.80;3.97;;;;;;;28.11;32.42;93374.81;5027716;28;20045;-86
2021/09/16 09:33:33;;;;;;;6.85;4.20;;;;;;;27.72;32.17;93411.75;5030731;28;20147;-88
2021/09/16 09:36:08;;;;;;;8.25;4.68;;;;;;;27.85;31.88;93423.19;5031687;28;20053;-85
2021/09/16 09:38:48;;;;;;;6.17;3.87;;;;;;;28.34;33.01;93420.28;5031829;28;20091;-85
2021/09/16 09:41:24;;;;;;;6.30;4.00;;;;;;;27.89;31.92;93421.47;5031237;28;20053;-87
2021/09/16 09:43:51;;;;;;;7.20;4.53;;;;;;;27.96;31.69;93413.84;5031419;28;20065;-85
2021/09/16 09:46:18;;;;;;;12.50;4.55;;;;;;;27.85;32.07;93429.25;5031656;28;20057;-87
2021/09/16 09:48:58;;;;;;;8.27;4.63;;;;;;;27.63;32.40;93387.97;5031599;28;20056;-87
2021/09/16 09:51:36;;;;;;;7.40;3.55;;;;;;;27.82;33.32;93377.06;5031261;28;20384;-86
2021/09/16 09:54:17;;;;;;;4.70;3.13;;;;;;;28.28;31.13;93398.56;5031159;28;20550;-87
2021/09/16 09:56:58;;;;;;;6.13;3.60;;;;;;;28.45;31.07;93370.50;5030600;28;20465;-86
2021/09/16 09:59:25;;;;;;;6.10;3.60;;;;;;;28.68;29.72;93357.78;5031397;28;20049;-86
2021/09/16 10:02:02;;;;;;;6.22;3.45;;;;;;;29.16;30.02;93383.31;5031657;28;20053;-85
2021/09/16 10:04:31;;;;;;;4.55;3.05;;;;;;;28.79;28.69;93408.41;5031722;28;20073;-85
2021/09/16 10:06:59;;;;;;;5.43;3.20;;;;;;;28.36;27.56;93367.13;5031406;28;20085;-87
2021/09/16 10:09:29;;;;;;;4.57;2.97;;;;;;;27.60;28.51;93344.53;5030193;28;20047;-87
2021/09/16 10:11:58;;;;;;;6.93;3.75;;;;;;;27.56;28.99;93361.28;5021092;28;20398;-87
2021/09/16 10:14:25;;;;;;;4.47;3.38;;;;;;;27.69;28.86;93405.22;5025746;28;20045;-86
2021/09/16 10:16:52;;;;;;;6.70;3.20;;;;;;;27.83;29.14;93369.94;5021908;28;20042;-87
2021/09/16 10:19:19;;;;;;;3.45;2.55;;;;;;;28.11;28.83;93402.00;5021688;28;20512;-87
2021/09/16 10:21:47;;;;;;;6.38;3.17;;;;;;;28.41;29.61;93404.72;5028331;28;20046;-87
2021/09/16 10:24:17;;;;;;;4.57;3.20;;;;;;;28.41;30.02;93390.72;5028452;28;20593;-85
2021/09/16 10:26:48;;;;;;;3.22;2.63;;;;;;;28.76;28.75;93353.53;5030600;28;20057;-87
2021/09/16 10:29:36;;;;;;;4.40;3.08;;;;;;;29.23;28.49;93354.47;5031541;28;20145;-86
2021/09/16 10:32:38;;;;;;;4.03;3.10;;;;;;;29.83;27.09;93390.53;5003651;28;20450;-89
2021/09/16 10:35:21;;;;;;;4.13;2.88;;;;;;;29.76;26.95;93335.44;5017445;28;20058;-86
2021/09/16 10:37:48;;;;;;;4.10;2.88;;;;;;;30.02;27.02;93321.16;5008601;28;20439;-87
2021/09/16 10:40:25;;;;;;;4.18;2.60;;;;;;;30.16;26.05;93387.06;5009860;28;20057;-88
2021/09/16 10:42:55;;;;;;;3.47;1.95;;;;;;;30.33;24.82;93390.63;5010974;28;20088;-84
2021/09/16 10:45:34;;;;;;;3.35;2.38;;;;;;;30.61;26.24;93390.75;5011031;28;20052;-85
2021/09/16 10:48:30;;;;;;;4.13;2.78;;;;;;;30.79;25.04;93382.56;5009819;28;20046;-83
2021/09/16 10:51:03;;;;;;;3.92;2.75;;;;;;;30.52;25.73;93332.53;5010388;28;20049;-86
2021/09/16 10:53:33;;;;;;;8.30;2.97;;;;;;;30.79;25.39;93356.81;5010423;28;20052;-87
2021/09/16 10:56:00;;;;;;;4.10;2.60;;;;;;;30.66;26.14;93324.25;5010692;28;20054;-88
2021/09/16 10:58:29;;;;;;;3.92;2.65;;;;;;;30.04;25.75;93369.28;5010054;28;20050;-88
2021/09/16 11:00:56;;;;;;;3.00;2.30;;;;;;;30.39;23.81;93365.44;5010219;28;20140;-89
2021/09/16 11:03:23;;;;;;;3.33;2.30;;;;;;;30.01;25.82;93279.88;5010095;28;20061;-85
2021/09/16 11:05:53;;;;;;;6.97;2.42;;;;;;;30.52;25.23;93306.03;5010562;28;20042;-86
2021/09/16 11:08:22;;;;;;;4.90;2.83;;;;;;;30.87;25.59;93322.56;5010358;28;20042;-87
2021/09/16 11:11:00;;;;;;;4.47;2.80;;;;;;;31.29;25.82;93348.75;5010092;28;20048;-87
2021/09/16 11:13:41;;;;;;;5.60;3.03;;;;;;;31.05;25.36;93293.88;5019160;28;20049;-86
2021/09/16 11:16:09;;;;;;;3.20;2.53;;;;;;;31.45;24.09;93329.44;5029757;28;20050;-86
2021/09/16 11:18:36;;;;;;;5.97;2.30;;;;;;;31.29;23.31;93279.75;5029843;28;20061;-87
2021/09/16 11:21:06;;;;;;;5.72;2.70;;;;;;;31.32;23.31;93260.50;5029738;28;20844;-86
2021/09/16 11:23:37;;;;;;;3.22;1.60;;;;;;;31.88;22.32;93321.03;5029695;28;20570;-85
2021/09/16 11:26:05;;;;;;;3.42;2.08;;;;;;;31.48;19.86;93331.41;5029531;28;20046;-87
2021/09/16 11:28:32;;;;;;;2.75;1.90;;;;;;;30.80;21.31;93265.56;5029980;28;20045;-88
2021/09/16 11:31:00;;;;;;;2.88;2.10;;;;;;;31.45;21.52;93319.59;5027504;28;20056;-86
2021/09/16 11:33:27;;;;;;;4.85;2.00;;;;;;;30.92;21.96;93324.97;5029577;28;20051;-88